British Tenacity — MDTE9 — position and weather

sailwx.info

Track history (hours):
 
Tides and Currents Weather Stations Pressure Air Temp Water Temp Dewpoint Dewpoint Depression Visibility Wind Speed Wind Dir Waves Ship Positions

British Tenacity

Last reported at 2014-Sep-16 23:00 UTC. Time now 2014-Sep-17 11:34 UTC.
Position N 48°48' W 012°54'.

Type: Ship (hazmat cat C). MMSI: 235825000.

Wind from 090 at 15 knots

Waves 3.0 meters (10 feet), 4 second period

Barometer 1005.0 mb
Air temperature 18.0 ° C
Visibility: greater than 5.4 NM
Dewpoint 16.3 ° C
Water temperature 17.0 ° C

Date/timePositionNaut miles runAvg speedWind from/ knotsBaromVisibWave heightAir tempDewpointWater temp
2014-Sep-16 23:00N 48°48' W 012°54'9924.7 090 / 151005.0 5.4 3.018.016.317.0
2014-Sep-16 19:00N 48°54' W 010°24'34313.7 090 / 181009.5 5.4 1.518.016.316.0
2014-Sep-15 18:00N 50°06' W 001°48'4513.0 070 / 101019.2 5.4 0.517.5 16.0
2014-Sep-15 14:32N 50°22' W 000°42'3912.1
2014-Sep-15 11:18N 50°33' E 000°17'1013.2
2014-Sep-15 10:33N 50°36' E 000°32'1514.5
2014-Sep-15 09:33N 50°44' E 000°51'2315.2
2014-Sep-15 08:04N 50°59' E 001°18'714.5
2014-Sep-15 07:33N 51°04' E 001°26'1313.1
2014-Sep-15 06:33N 51°13' E 001°42'1212.3
2014-Sep-15 05:33N 51°23' E 001°52'1212.4
2014-Sep-15 04:33N 51°33' E 002°03'1313.3
2014-Sep-15 03:33N 51°43' E 002°18'6014.7
2014-Sep-14 23:30N 52°25' E 003°27'1313.2
2014-Sep-14 22:32N 52°31' E 003°45'1414.0
2014-Sep-14 21:34N 52°31' E 004°08'1312.5
2014-Sep-14 20:33N 52°29' E 004°28'5 5.4
2014-Sep-14 19:34N 52°28' E 004°37'6 6.4
2014-Sep-14 18:34N 52°26' E 004°46'0 0.5
2014-Sep-14 17:32N 52°25' E 004°46'0 0.0
2014-Sep-14 16:32N 52°25' E 004°46'  
2014-Sep-10 10:32N 52°25' E 004°46'0 0.0
2014-Sep-10 09:26N 52°25' E 004°46'0 0.0
2014-Sep-10 08:32N 52°25' E 004°46'0 0.0
2014-Sep-10 07:31N 52°25' E 004°46'0 0.0
2014-Sep-10 06:31N 52°25' E 004°46'0 0.0
2014-Sep-10 05:31N 52°25' E 004°46'0 0.0
2014-Sep-10 04:31N 52°25' E 004°46'0 0.0
2014-Sep-10 03:31N 52°25' E 004°46'0 0.0
2014-Sep-10 02:31N 52°25' E 004°46'0 0.0
2014-Sep-10 01:31N 52°25' E 004°46'0 0.2
2014-Sep-10 00:33N 52°25' E 004°46'5 5.3
2014-Sep-09 23:33N 52°28' E 004°39'4 3.7
2014-Sep-09 22:33N 52°28' E 004°33'8 7.8
2014-Sep-09 21:33N 52°28' E 004°20'1211.5
2014-Sep-09 20:33N 52°27' E 004°01'3 2.7
2014-Sep-09 19:31N 52°26' E 003°57'0 0.0
2014-Sep-09 18:31N 52°26' E 003°57'0 0.1
2014-Sep-09 17:31N 52°26' E 003°57'0 0.1
2014-Sep-09 16:28N 52°26' E 003°57'0 0.0
2014-Sep-09 15:31N 52°26' E 003°57'0 0.0
2014-Sep-09 14:31N 52°26' E 003°57'0 0.3
2014-Sep-09 13:33N 52°26' E 003°57'153 6.5
2014-Sep-08 14:05N 54°13' E 006°60'713.5
2014-Sep-08 13:33N 54°13' E 007°12'9 9.5
2014-Sep-08 12:33N 54°07' E 007°25'3 2.5
2014-Sep-08 11:31N 54°05' E 007°28'0 0.0
2014-Sep-08 10:31N 54°05' E 007°28'0 0.1
2014-Sep-08 09:31N 54°05' E 007°28'0 0.0
2014-Sep-08 08:31N 54°05' E 007°28'0 0.0
2014-Sep-08 07:31N 54°05' E 007°28'0 0.0
2014-Sep-08 06:10N 54°05' E 007°28'0 0.0
2014-Sep-08 05:31N 54°05' E 007°28'0 0.0
2014-Sep-08 04:28N 54°05' E 007°28'0 0.0
2014-Sep-08 03:31N 54°05' E 007°28'0 0.1
2014-Sep-08 02:25N 54°05' E 007°28'0 0.0
2014-Sep-08 01:31N 54°05' E 007°28'0 0.0
2014-Sep-08 00:31N 54°05' E 007°28'610.9
2014-Sep-08 00:00N 54°00' E 007°24'610.8 280 / 161015.610.8 15.814.417.0
2014-Sep-07 23:28N 54°05' E 007°28'0 0.0
2014-Sep-07 21:31N 54°05' E 007°28'0 0.0
2014-Sep-07 20:31N 54°05' E 007°28'0 0.0
2014-Sep-07 19:31N 54°05' E 007°28'0 0.0
2014-Sep-07 18:28N 54°05' E 007°28'0 0.0
2014-Sep-07 17:28N 54°05' E 007°28'0 0.0
2014-Sep-07 16:28N 54°05' E 007°28'0 0.1
2014-Sep-07 15:28N 54°05' E 007°28'0 0.1
2014-Sep-07 14:31N 54°05' E 007°28'0 0.0
2014-Sep-07 13:34N 54°05' E 007°28'0 0.0
2014-Sep-07 12:30N 54°05' E 007°28'0 0.1
2014-Sep-07 11:33N 54°05' E 007°28'0 0.0
2014-Sep-07 10:33N 54°05' E 007°28'0 0.1
2014-Sep-07 09:24N 54°05' E 007°28'0 0.0
2014-Sep-07 08:24N 54°05' E 007°28'0 0.0
2014-Sep-07 07:33N 54°05' E 007°28'0 0.0
2014-Sep-07 06:21N 54°05' E 007°28'0 0.0
2014-Sep-07 05:24N 54°05' E 007°28'0 0.0
2014-Sep-07 04:33N 54°05' E 007°28'0 0.0
2014-Sep-07 03:33N 54°05' E 007°28'0 0.1
2014-Sep-07 02:18N 54°05' E 007°28'0 0.0
2014-Sep-07 01:30N 54°05' E 007°28'0 0.0
2014-Sep-07 00:27N 54°05' E 007°28'0 0.0
2014-Sep-06 23:21N 54°05' E 007°28'  
Track history (hours):
 
Tides and Currents Weather Stations Pressure Air Temp Water Temp Dewpoint Dewpoint Depression Visibility Wind Speed Wind Dir Waves Ship Positions

British Tenacity

Last reported at 2014-Sep-16 23:00 UTC. Time now 2014-Sep-17 11:34 UTC.
Position N 48°48' W 012°54'.

Type: Ship (hazmat cat C). MMSI: 235825000.

Wind from 090 at 15 knots

Waves 3.0 meters (10 feet), 4 second period

Barometer 1005.0 mb
Air temperature 18.0 ° C
Visibility: greater than 5.4 NM
Dewpoint 16.3 ° C
Water temperature 17.0 ° C

Date/timePositionNaut miles runAvg speedWind from/ knotsBaromVisibWave heightAir tempDewpointWater temp
2014-Sep-16 23:00N 48°48' W 012°54'9924.7 090 / 151005.0 5.4 3.018.016.317.0
2014-Sep-16 19:00N 48°54' W 010°24'34313.7 090 / 181009.5 5.4 1.518.016.316.0
2014-Sep-15 18:00N 50°06' W 001°48'4513.0 070 / 101019.2 5.4 0.517.5 16.0
2014-Sep-15 14:32N 50°22' W 000°42'3912.1
2014-Sep-15 11:18N 50°33' E 000°17'1013.2
2014-Sep-15 10:33N 50°36' E 000°32'1514.5
2014-Sep-15 09:33N 50°44' E 000°51'2315.2
2014-Sep-15 08:04N 50°59' E 001°18'714.5
2014-Sep-15 07:33N 51°04' E 001°26'1313.1
2014-Sep-15 06:33N 51°13' E 001°42'1212.3
2014-Sep-15 05:33N 51°23' E 001°52'1212.4
2014-Sep-15 04:33N 51°33' E 002°03'1313.3
2014-Sep-15 03:33N 51°43' E 002°18'6014.7
2014-Sep-14 23:30N 52°25' E 003°27'1313.2
2014-Sep-14 22:32N 52°31' E 003°45'1414.0
2014-Sep-14 21:34N 52°31' E 004°08'1312.5
2014-Sep-14 20:33N 52°29' E 004°28'5 5.4
2014-Sep-14 19:34N 52°28' E 004°37'6 6.4
2014-Sep-14 18:34N 52°26' E 004°46'0 0.5
2014-Sep-14 17:32N 52°25' E 004°46'0 0.0
2014-Sep-14 16:32N 52°25' E 004°46'  
2014-Sep-10 10:32N 52°25' E 004°46'0 0.0
2014-Sep-10 09:26N 52°25' E 004°46'0 0.0
2014-Sep-10 08:32N 52°25' E 004°46'0 0.0
2014-Sep-10 07:31N 52°25' E 004°46'0 0.0
2014-Sep-10 06:31N 52°25' E 004°46'0 0.0
2014-Sep-10 05:31N 52°25' E 004°46'0 0.0
2014-Sep-10 04:31N 52°25' E 004°46'0 0.0
2014-Sep-10 03:31N 52°25' E 004°46'0 0.0
2014-Sep-10 02:31N 52°25' E 004°46'0 0.0
2014-Sep-10 01:31N 52°25' E 004°46'0 0.2
2014-Sep-10 00:33N 52°25' E 004°46'5 5.3
2014-Sep-09 23:33N 52°28' E 004°39'4 3.7
2014-Sep-09 22:33N 52°28' E 004°33'8 7.8
2014-Sep-09 21:33N 52°28' E 004°20'1211.5
2014-Sep-09 20:33N 52°27' E 004°01'3 2.7
2014-Sep-09 19:31N 52°26' E 003°57'0 0.0
2014-Sep-09 18:31N 52°26' E 003°57'0 0.1
2014-Sep-09 17:31N 52°26' E 003°57'0 0.1
2014-Sep-09 16:28N 52°26' E 003°57'0 0.0
2014-Sep-09 15:31N 52°26' E 003°57'0 0.0
2014-Sep-09 14:31N 52°26' E 003°57'0 0.3
2014-Sep-09 13:33N 52°26' E 003°57'153 6.5
2014-Sep-08 14:05N 54°13' E 006°60'713.5
2014-Sep-08 13:33N 54°13' E 007°12'9 9.5
2014-Sep-08 12:33N 54°07' E 007°25'3 2.5
2014-Sep-08 11:31N 54°05' E 007°28'0 0.0
2014-Sep-08 10:31N 54°05' E 007°28'0 0.1
2014-Sep-08 09:31N 54°05' E 007°28'0 0.0
2014-Sep-08 08:31N 54°05' E 007°28'0 0.0
2014-Sep-08 07:31N 54°05' E 007°28'0 0.0
2014-Sep-08 06:10N 54°05' E 007°28'0 0.0
2014-Sep-08 05:31N 54°05' E 007°28'0 0.0
2014-Sep-08 04:28N 54°05' E 007°28'0 0.0
2014-Sep-08 03:31N 54°05' E 007°28'0 0.1
2014-Sep-08 02:25N 54°05' E 007°28'0 0.0
2014-Sep-08 01:31N 54°05' E 007°28'0 0.0
2014-Sep-08 00:31N 54°05' E 007°28'610.9
2014-Sep-08 00:00N 54°00' E 007°24'610.8 280 / 161015.610.8 15.814.417.0
2014-Sep-07 23:28N 54°05' E 007°28'0 0.0
2014-Sep-07 21:31N 54°05' E 007°28'0 0.0
2014-Sep-07 20:31N 54°05' E 007°28'0 0.0
2014-Sep-07 19:31N 54°05' E 007°28'0 0.0
2014-Sep-07 18:28N 54°05' E 007°28'0 0.0
2014-Sep-07 17:28N 54°05' E 007°28'0 0.0
2014-Sep-07 16:28N 54°05' E 007°28'0 0.1
2014-Sep-07 15:28N 54°05' E 007°28'0 0.1
2014-Sep-07 14:31N 54°05' E 007°28'0 0.0
2014-Sep-07 13:34N 54°05' E 007°28'0 0.0
2014-Sep-07 12:30N 54°05' E 007°28'0 0.1
2014-Sep-07 11:33N 54°05' E 007°28'0 0.0
2014-Sep-07 10:33N 54°05' E 007°28'0 0.1
2014-Sep-07 09:24N 54°05' E 007°28'0 0.0
2014-Sep-07 08:24N 54°05' E 007°28'0 0.0
2014-Sep-07 07:33N 54°05' E 007°28'0 0.0
2014-Sep-07 06:21N 54°05' E 007°28'0 0.0
2014-Sep-07 05:24N 54°05' E 007°28'0 0.0
2014-Sep-07 04:33N 54°05' E 007°28'0 0.0
2014-Sep-07 03:33N 54°05' E 007°28'0 0.1
2014-Sep-07 02:18N 54°05' E 007°28'0 0.0
2014-Sep-07 01:30N 54°05' E 007°28'0 0.0
2014-Sep-07 00:27N 54°05' E 007°28'0 0.0
2014-Sep-06 23:21N 54°05' E 007°28'  

Dump ship's entire track history